createdAt,value
2023-05-28T00:01:37.021Z,42.99
2023-05-28T00:04:08.918Z,42.69
2023-05-28T00:06:38.267Z,43.01
2023-05-28T00:09:06.546Z,43.32
2023-05-28T00:11:34.952Z,43.21
2023-05-28T00:14:04.546Z,43.34
2023-05-28T00:16:42.161Z,43.24
2023-05-28T00:19:12.976Z,43.52
2023-05-28T00:21:42.559Z,43.69
2023-05-28T00:24:18.476Z,43.53
2023-05-28T00:26:55.951Z,43.34
2023-05-28T00:29:35.061Z,43.40
2023-05-28T00:32:08.352Z,43.42
2023-05-28T00:34:46.180Z,43.33
2023-05-28T00:37:19.684Z,43.78
2023-05-28T00:39:53.419Z,43.35
2023-05-28T00:42:23.315Z,44.20
2023-05-28T00:44:52.035Z,46.72
2023-05-28T00:47:28.519Z,47.52
2023-05-28T00:50:07.604Z,48.62
2023-05-28T00:52:37.956Z,48.77
2023-05-28T00:55:16.283Z,48.57
2023-05-28T00:57:47.212Z,48.63
2023-05-28T01:00:22.440Z,49.14
2023-05-28T01:03:00.817Z,48.86
2023-05-28T01:05:33.194Z,49.10
2023-05-28T01:08:03.491Z,49.46
2023-05-28T01:10:35.737Z,49.26
2023-05-28T01:13:06.989Z,48.76
2023-05-28T01:15:38.400Z,49.12
2023-05-28T01:18:14.650Z,50.35
2023-05-28T01:20:50.898Z,50.02
2023-05-28T01:23:24.160Z,50.11
2023-05-28T01:26:11.689Z,50.25
2023-05-28T01:28:42.771Z,49.68
2023-05-28T01:31:13.535Z,50.42
2023-05-28T01:33:51.681Z,50.65
2023-05-28T01:36:24.562Z,50.95
2023-05-28T01:39:01.056Z,50.08
2023-05-28T01:41:38.357Z,49.56
2023-05-28T01:44:08.726Z,49.70
2023-05-28T01:46:39.746Z,49.19
2023-05-28T01:49:13.971Z,49.11
2023-05-28T01:51:43.163Z,50.47
2023-05-28T01:54:17.415Z,50.50
2023-05-28T01:56:50.542Z,52.28
2023-05-28T01:59:28.847Z,51.62
2023-05-28T02:01:57.286Z,51.96
2023-05-28T02:04:27.279Z,52.74
2023-05-28T02:06:56.897Z,53.20
2023-05-28T02:09:28.711Z,53.07
2023-05-28T02:12:00.482Z,52.39
2023-05-28T02:14:30.591Z,53.83
2023-05-28T02:17:01.399Z,52.98
2023-05-28T02:19:33.786Z,53.14
2023-05-28T02:22:04.695Z,52.79
2023-05-28T02:24:40.160Z,52.71
2023-05-28T02:27:15.875Z,54.43
2023-05-28T02:29:53.236Z,53.69
2023-05-28T02:32:26.819Z,53.39
2023-05-28T02:35:00.960Z,53.57
2023-05-28T02:37:36.198Z,54.07
2023-05-28T02:40:06.857Z,53.40
2023-05-28T02:42:37.799Z,53.62
2023-05-28T02:45:08.068Z,53.86
2023-05-28T02:47:36.360Z,54.68
2023-05-28T02:50:07.898Z,54.78
2023-05-28T02:52:59.820Z,54.84
2023-05-28T02:55:37.829Z,55.34
2023-05-28T02:58:12.315Z,55.35
2023-05-28T03:00:43.636Z,54.73
2023-05-28T03:03:14.808Z,55.70
2023-05-28T03:05:47.636Z,55.62
2023-05-28T03:08:17.737Z,55.87
2023-05-28T03:10:48.839Z,56.10
2023-05-28T03:13:20.957Z,56.65
2023-05-28T03:15:52.393Z,55.87
2023-05-28T03:18:23.360Z,56.20
2023-05-28T03:20:57.482Z,56.73
2023-05-28T03:23:33.608Z,56.98
2023-05-28T03:26:29.334Z,56.20
2023-05-28T03:29:04.623Z,56.95
2023-05-28T03:32:00.054Z,57.09
2023-05-28T03:34:29.982Z,58.36
2023-05-28T03:37:01.368Z,57.08
2023-05-28T03:39:35.985Z,57.13
2023-05-28T03:42:10.721Z,57.29
2023-05-28T03:44:50.763Z,56.92
2023-05-28T03:47:20.253Z,56.72
2023-05-28T03:49:49.644Z,57.11
2023-05-28T03:52:23.790Z,56.30
2023-05-28T03:54:57.185Z,56.37
2023-05-28T03:57:36.679Z,56.39
2023-05-28T04:00:13.744Z,56.68
2023-05-28T04:02:56.752Z,57.36
2023-05-28T04:05:29.435Z,56.72
2023-05-28T04:08:00.653Z,56.50
2023-05-28T04:10:32.482Z,57.20
2023-05-28T04:13:05.686Z,56.64
2023-05-28T04:15:53.067Z,55.97
2023-05-28T04:18:31.233Z,56.29
2023-05-28T04:21:08.352Z,55.39
2023-05-28T04:23:45.201Z,55.74
2023-05-28T04:26:24.728Z,55.80
2023-05-28T04:29:03.012Z,55.60
2023-05-28T04:31:43.012Z,53.92
2023-05-28T04:34:11.873Z,52.29
2023-05-28T04:36:44.180Z,52.37
2023-05-28T04:39:12.486Z,51.70
2023-05-28T04:41:42.056Z,51.12
2023-05-28T04:44:10.320Z,51.04
2023-05-28T04:46:44.671Z,50.36
2023-05-28T04:49:13.591Z,50.27
2023-05-28T04:51:50.149Z,50.03
2023-05-28T04:54:20.768Z,49.76
2023-05-28T04:56:53.260Z,50.00
2023-05-28T04:59:22.732Z,49.32
2023-05-28T05:02:10.357Z,48.64
2023-05-28T05:04:48.253Z,49.63
2023-05-28T05:07:21.971Z,49.34
2023-05-28T05:09:52.879Z,49.18
2023-05-28T05:12:32.402Z,49.50
2023-05-28T05:15:01.991Z,49.86
2023-05-28T05:17:34.874Z,49.30
2023-05-28T05:20:06.313Z,48.95
2023-05-28T05:22:39.896Z,49.17
2023-05-28T05:25:14.434Z,49.68
2023-05-28T05:27:48.876Z,49.09
2023-05-28T05:30:20.699Z,48.64
2023-05-28T05:33:10.976Z,48.27
2023-05-28T05:36:13.229Z,48.57
2023-05-28T05:39:07.837Z,47.96
2023-05-28T05:42:07.610Z,47.87
2023-05-28T05:44:57.900Z,47.96
2023-05-28T05:47:28.580Z,48.06
2023-05-28T05:50:18.268Z,47.90
2023-05-28T05:52:47.416Z,47.20
2023-05-28T05:55:19.184Z,46.98
2023-05-28T05:57:47.987Z,47.29
2023-05-28T06:00:19.109Z,47.52
2023-05-28T06:02:51.531Z,47.17
2023-05-28T06:05:42.107Z,47.49
2023-05-28T06:08:39.436Z,48.02
2023-05-28T06:11:49.759Z,47.99
2023-05-28T06:14:22.577Z,47.54
2023-05-28T06:16:51.429Z,48.54
2023-05-28T06:19:22.315Z,47.96
2023-05-28T06:21:58.709Z,47.61
2023-05-28T06:24:34.453Z,47.63
2023-05-28T06:27:04.465Z,46.97
2023-05-28T06:29:42.260Z,47.56
2023-05-28T06:32:14.447Z,47.66
2023-05-28T06:34:44.323Z,47.27
2023-05-28T06:37:25.821Z,45.78
2023-05-28T06:39:54.917Z,46.10
2023-05-28T06:42:27.580Z,46.22
2023-05-28T06:45:17.013Z,47.24
2023-05-28T06:47:49.028Z,46.54
2023-05-28T06:50:20.964Z,46.52
2023-05-28T06:52:56.456Z,46.29
2023-05-28T06:55:27.704Z,46.20
2023-05-28T06:58:22.176Z,46.07
2023-05-28T07:01:20.081Z,46.99
2023-05-28T07:04:11.439Z,47.63
2023-05-28T07:06:45.046Z,47.04
2023-05-28T07:09:25.110Z,46.82
2023-05-28T07:11:56.402Z,46.20
2023-05-28T07:14:26.589Z,46.63
2023-05-28T07:16:55.232Z,46.46
2023-05-28T07:19:28.153Z,46.75
2023-05-28T07:22:03.420Z,46.96
2023-05-28T07:24:34.750Z,46.66
2023-05-28T07:27:05.399Z,46.67
2023-05-28T07:29:36.512Z,45.64
2023-05-28T07:32:06.676Z,45.67
2023-05-28T07:34:51.063Z,45.32
2023-05-28T07:37:21.932Z,44.71
2023-05-28T07:39:53.811Z,44.83
2023-05-28T07:42:22.183Z,44.59
2023-05-28T07:45:08.554Z,44.79
2023-05-28T07:47:38.907Z,45.52
2023-05-28T07:50:28.977Z,44.52
2023-05-28T07:53:18.719Z,45.11
2023-05-28T07:55:55.373Z,45.28
2023-05-28T07:58:26.463Z,45.99
2023-05-28T08:00:58.068Z,45.15
2023-05-28T08:03:30.527Z,45.15
2023-05-28T08:06:03.080Z,45.33
2023-05-28T08:08:37.308Z,45.15
2023-05-28T08:11:21.860Z,44.79
2023-05-28T08:13:54.066Z,44.40
2023-05-28T08:16:27.984Z,44.43
2023-05-28T08:19:19.860Z,44.59
2023-05-28T08:21:51.962Z,44.79
2023-05-28T08:24:24.231Z,44.85
2023-05-28T08:27:00.260Z,44.17
2023-05-28T08:29:38.666Z,44.23
2023-05-28T08:32:09.960Z,44.18
2023-05-28T08:34:42.572Z,44.33
2023-05-28T08:37:13.863Z,44.30
2023-05-28T08:40:14.058Z,44.29
2023-05-28T08:42:46.269Z,44.70
2023-05-28T08:45:20.062Z,45.31
2023-05-28T08:47:53.531Z,45.31
2023-05-28T08:50:31.179Z,44.95
2023-05-28T08:53:23.030Z,44.88
2023-05-28T08:55:52.891Z,44.75
2023-05-28T08:58:26.560Z,44.44
2023-05-28T09:00:59.085Z,45.14
2023-05-28T09:03:49.754Z,44.68
2023-05-28T09:06:48.531Z,44.49
2023-05-28T09:09:30.636Z,44.72
2023-05-28T09:12:07.574Z,44.36
2023-05-28T09:14:55.688Z,44.51
2023-05-28T09:17:42.850Z,44.82
2023-05-28T09:20:20.675Z,44.13
2023-05-28T09:23:02.753Z,43.96
2023-05-28T09:26:04.947Z,44.59
2023-05-28T09:28:44.772Z,44.09
2023-05-28T09:31:26.309Z,44.62
2023-05-28T09:33:56.964Z,44.42
2023-05-28T09:36:26.945Z,44.25
2023-05-28T09:38:56.267Z,45.34
2023-05-28T09:41:35.054Z,44.62
2023-05-28T09:44:05.902Z,43.99
2023-05-28T09:46:45.134Z,44.32
2023-05-28T09:49:14.655Z,44.11
2023-05-28T09:51:46.334Z,44.40
2023-05-28T09:54:15.956Z,44.64
2023-05-28T09:56:47.372Z,43.91
2023-05-28T09:59:21.994Z,43.52
2023-05-28T10:02:01.497Z,42.89
2023-05-28T10:04:36.431Z,42.72
2023-05-28T10:07:16.797Z,43.09
2023-05-28T10:09:49.037Z,42.90
2023-05-28T10:12:27.337Z,43.67
2023-05-28T10:14:56.669Z,43.29
2023-05-28T10:17:27.312Z,42.69
2023-05-28T10:19:56.946Z,42.31
2023-05-28T10:22:33.565Z,42.76
2023-05-28T10:25:10.261Z,43.20
2023-05-28T10:27:53.524Z,42.65
2023-05-28T10:30:36.812Z,42.32
2023-05-28T10:33:16.095Z,42.52
2023-05-28T10:35:56.272Z,41.96
2023-05-28T10:38:26.211Z,41.56
2023-05-28T10:41:06.019Z,42.25
2023-05-28T10:43:48.912Z,42.28
2023-05-28T10:46:24.350Z,42.43
2023-05-28T10:49:17.941Z,42.62
2023-05-28T10:52:03.797Z,41.76
2023-05-28T10:54:48.535Z,41.57
2023-05-28T10:57:30.822Z,41.63
2023-05-28T11:00:05.005Z,41.22
2023-05-28T11:02:38.833Z,41.34
2023-05-28T11:05:10.926Z,41.32
2023-05-28T11:07:41.140Z,41.28
2023-05-28T11:10:11.754Z,40.79
2023-05-28T11:12:41.463Z,41.63
2023-05-28T11:15:19.768Z,41.35
2023-05-28T11:17:51.905Z,41.00
2023-05-28T11:20:29.536Z,41.24
2023-05-28T11:23:00.399Z,40.88
2023-05-28T11:25:40.151Z,40.20
2023-05-28T11:28:11.638Z,39.24
2023-05-28T11:30:43.496Z,39.52
2023-05-28T11:33:12.636Z,38.81
2023-05-28T11:35:51.738Z,38.60
2023-05-28T11:38:21.397Z,38.12
2023-05-28T11:40:53.986Z,38.22
2023-05-28T11:43:30.247Z,38.12
2023-05-28T11:46:08.540Z,39.48
2023-05-28T11:48:40.352Z,38.22
2023-05-28T11:51:23.921Z,37.87
2023-05-28T11:53:57.620Z,37.45
2023-05-28T11:56:30.302Z,37.58
2023-05-28T11:59:06.480Z,37.16
2023-05-28T12:01:38.376Z,37.25
2023-05-28T12:04:07.725Z,37.20
2023-05-28T12:06:53.557Z,36.19
2023-05-28T12:09:24.044Z,36.55
2023-05-28T12:12:06.608Z,35.98
2023-05-28T12:14:42.455Z,35.59
2023-05-28T12:17:13.588Z,35.64
2023-05-28T12:19:43.688Z,35.08
2023-05-28T12:22:20.472Z,34.63
2023-05-28T12:24:51.043Z,35.12
2023-05-28T12:27:22.367Z,34.50
2023-05-28T12:29:53.162Z,33.83
2023-05-28T12:32:29.608Z,33.04
2023-05-28T12:35:09.396Z,33.60
2023-05-28T12:37:54.881Z,33.99
2023-05-28T12:40:25.247Z,33.94
2023-05-28T12:42:54.741Z,33.55
2023-05-28T12:45:25.214Z,33.72
2023-05-28T12:47:58.993Z,32.92
2023-05-28T12:50:35.344Z,32.27
2023-05-28T12:53:08.866Z,32.07
2023-05-28T12:55:40.189Z,32.02
2023-05-28T12:58:14.697Z,31.51
2023-05-28T13:00:53.168Z,31.41
2023-05-28T13:03:27.062Z,31.94
2023-05-28T13:06:04.351Z,32.02
2023-05-28T13:08:36.781Z,31.38
2023-05-28T13:11:05.967Z,31.63
2023-05-28T13:13:43.607Z,31.66
2023-05-28T13:16:14.824Z,31.03
2023-05-28T13:18:47.345Z,30.58
2023-05-28T13:21:24.227Z,30.40
2023-05-28T13:24:01.542Z,30.69
2023-05-28T13:26:32.642Z,30.30
2023-05-28T13:29:06.609Z,30.07
2023-05-28T13:31:36.559Z,30.39
2023-05-28T13:34:18.804Z,30.55
2023-05-28T13:36:55.793Z,30.60
2023-05-28T13:39:30.102Z,30.37
2023-05-28T13:42:02.587Z,30.10
2023-05-28T13:44:31.383Z,29.40
2023-05-28T13:47:07.017Z,28.95
2023-05-28T13:49:38.329Z,28.69
2023-05-28T13:52:06.545Z,28.98
2023-05-28T13:54:42.751Z,29.01
2023-05-28T13:57:23.340Z,29.96
2023-05-28T13:59:54.332Z,31.57
2023-05-28T14:02:27.555Z,31.09
2023-05-28T14:04:58.792Z,30.53
2023-05-28T14:07:30.566Z,29.67
2023-05-28T14:10:10.421Z,29.59
2023-05-28T14:12:44.848Z,29.62
2023-05-28T14:15:15.505Z,29.09
2023-05-28T14:17:44.549Z,28.16
2023-05-28T14:20:22.493Z,27.80
2023-05-28T14:22:52.380Z,28.00
2023-05-28T14:25:23.690Z,27.50
2023-05-28T14:28:07.423Z,28.26
2023-05-28T14:30:48.577Z,27.92
2023-05-28T14:33:21.244Z,27.14
2023-05-28T14:36:00.933Z,26.78
2023-05-28T14:38:38.823Z,27.18
2023-05-28T14:41:20.146Z,26.79
2023-05-28T14:43:49.164Z,27.88
2023-05-28T14:46:23.294Z,28.24
2023-05-28T14:48:52.745Z,27.60
2023-05-28T14:51:29.404Z,26.91
2023-05-28T14:54:00.565Z,27.37
2023-05-28T14:56:47.357Z,27.89
2023-05-28T14:59:16.969Z,27.20
2023-05-28T15:01:51.084Z,26.72
2023-05-28T15:04:19.445Z,26.88
2023-05-28T15:06:49.752Z,26.86
2023-05-28T15:09:20.048Z,26.63
2023-05-28T15:12:00.433Z,27.26
2023-05-28T15:14:31.962Z,28.38
2023-05-28T15:17:02.414Z,27.87
2023-05-28T15:19:31.532Z,28.07
2023-05-28T15:22:00.154Z,27.96
2023-05-28T15:24:37.473Z,27.89
2023-05-28T15:27:16.405Z,27.44
2023-05-28T15:29:54.012Z,27.09
2023-05-28T15:32:31.387Z,27.21
2023-05-28T15:35:10.618Z,28.48
2023-05-28T15:37:49.374Z,28.38
2023-05-28T15:40:20.141Z,27.58
2023-05-28T15:42:59.118Z,27.38
2023-05-28T15:45:35.807Z,27.87
2023-05-28T15:50:56.166Z,27.83
2023-05-28T15:53:33.559Z,27.38
2023-05-28T15:56:07.989Z,27.95
2023-05-28T15:58:37.957Z,27.87
2023-05-28T16:01:08.483Z,28.06
2023-05-28T16:03:41.676Z,27.91
2023-05-28T16:06:13.826Z,27.64
2023-05-28T16:08:50.205Z,28.35
2023-05-28T16:11:30.837Z,27.64
2023-05-28T16:14:19.822Z,27.76
2023-05-28T16:16:55.402Z,28.17
2023-05-28T16:19:27.947Z,28.23
2023-05-28T16:22:01.367Z,28.33
2023-05-28T16:24:33.249Z,27.96
2023-05-28T16:27:13.532Z,28.30
2023-05-28T16:29:58.911Z,27.98
2023-05-28T16:32:45.749Z,28.04
2023-05-28T16:35:20.444Z,29.97
2023-05-28T16:37:52.317Z,29.58
2023-05-28T16:40:21.816Z,29.54
2023-05-28T16:42:59.337Z,30.21
2023-05-28T16:45:30.284Z,30.81
2023-05-28T16:48:07.364Z,30.37
2023-05-28T16:50:36.597Z,30.59
2023-05-28T16:53:09.760Z,29.94
2023-05-28T16:55:48.533Z,30.46
2023-05-28T16:58:21.591Z,29.88
2023-05-28T17:00:59.183Z,29.87
2023-05-28T17:03:32.405Z,30.27
2023-05-28T17:06:05.162Z,30.53
2023-05-28T17:08:33.913Z,31.04
2023-05-28T17:11:03.005Z,31.07
2023-05-28T17:13:44.056Z,31.58
2023-05-28T17:16:19.957Z,31.86
2023-05-28T17:18:54.431Z,32.26
2023-05-28T17:21:22.694Z,31.95
2023-05-28T17:23:54.086Z,31.62
2023-05-28T17:26:23.594Z,32.04
2023-05-28T17:28:56.894Z,32.05
2023-05-28T17:31:40.923Z,32.18
2023-05-28T17:34:12.795Z,31.97
2023-05-28T17:36:43.485Z,32.35
2023-05-28T17:39:19.879Z,32.66
2023-05-28T17:41:48.579Z,32.80
2023-05-28T17:44:23.054Z,32.90
2023-05-28T17:46:57.307Z,33.14
2023-05-28T17:49:26.821Z,33.64
2023-05-28T17:51:55.800Z,33.95
2023-05-28T17:54:26.127Z,34.34
2023-05-28T17:56:54.502Z,35.11
2023-05-28T17:59:24.852Z,35.52
2023-05-28T18:02:02.346Z,35.71
2023-05-28T18:04:32.011Z,36.75
2023-05-28T18:07:03.686Z,36.66
2023-05-28T18:09:35.835Z,37.03
2023-05-28T18:12:07.863Z,37.52
2023-05-28T18:14:37.638Z,37.18
2023-05-28T18:17:10.632Z,37.74
2023-05-28T18:19:43.407Z,38.08
2023-05-28T18:22:16.904Z,38.47
2023-05-28T18:24:46.483Z,38.28
2023-05-28T18:27:16.264Z,39.06
2023-05-28T18:29:48.656Z,39.38
2023-05-28T18:32:21.602Z,39.47
2023-05-28T18:34:50.906Z,39.93
2023-05-28T18:37:20.699Z,39.48
2023-05-28T18:39:54.381Z,39.99
2023-05-28T18:42:32.166Z,40.51
2023-05-28T18:45:04.506Z,40.89
2023-05-28T18:47:37.858Z,40.80
2023-05-28T18:50:14.788Z,40.99
2023-05-28T18:52:45.788Z,41.76
2023-05-28T18:55:25.107Z,42.40
2023-05-28T18:57:56.953Z,42.04
2023-05-28T19:00:28.815Z,42.49
2023-05-28T19:03:00.417Z,42.63
2023-05-28T19:05:29.283Z,42.68
2023-05-28T19:07:58.800Z,42.77
2023-05-28T19:10:28.098Z,42.22
2023-05-28T19:13:00.138Z,42.22
2023-05-28T19:15:37.413Z,42.53
2023-05-28T19:18:12.673Z,42.65
2023-05-28T19:20:42.377Z,41.74
2023-05-28T19:23:13.704Z,41.96
2023-05-28T19:25:56.542Z,41.77
2023-05-28T19:28:28.509Z,42.18
2023-05-28T19:31:01.926Z,42.40
2023-05-28T19:33:39.833Z,42.02
2023-05-28T19:36:18.751Z,41.94
2023-05-28T19:38:54.886Z,42.10
2023-05-28T19:41:25.282Z,42.68
2023-05-28T19:44:03.174Z,42.89
2023-05-28T19:46:34.284Z,43.15
2023-05-28T19:49:15.393Z,42.64
2023-05-28T19:51:46.184Z,43.23
2023-05-28T19:54:19.468Z,43.62
2023-05-28T19:56:50.013Z,44.74
2023-05-28T19:59:24.919Z,44.78
2023-05-28T20:01:53.867Z,45.32
2023-05-28T20:04:26.292Z,45.22
2023-05-28T20:06:59.067Z,44.77
2023-05-28T20:09:29.067Z,44.91
2023-05-28T20:12:00.443Z,44.62
2023-05-28T20:14:29.822Z,44.38
2023-05-28T20:17:04.648Z,44.58
2023-05-28T20:19:48.255Z,44.67
2023-05-28T20:22:21.285Z,44.66
2023-05-28T20:24:50.028Z,44.29
2023-05-28T20:27:28.664Z,44.46
2023-05-28T20:30:02.995Z,44.59
2023-05-28T20:32:36.449Z,44.51
2023-05-28T20:35:11.264Z,44.73
2023-05-28T20:37:42.613Z,44.35
2023-05-28T20:40:24.828Z,44.95
2023-05-28T20:42:55.889Z,44.42
2023-05-28T20:45:25.999Z,44.09
2023-05-28T20:47:58.521Z,44.12
2023-05-28T20:50:37.193Z,43.48
2023-05-28T20:53:10.429Z,43.14
2023-05-28T20:55:40.427Z,42.75
2023-05-28T21:00:38.423Z,42.55
2023-05-28T21:03:06.848Z,42.51
2023-05-28T21:05:42.904Z,42.47
2023-05-28T21:08:11.777Z,42.04
2023-05-28T21:10:44.892Z,42.38
2023-05-28T21:13:18.628Z,41.99
2023-05-28T21:16:02.246Z,42.33
2023-05-28T21:18:33.934Z,41.96
2023-05-28T21:21:07.412Z,41.92
2023-05-28T21:23:36.960Z,42.16
2023-05-28T21:26:06.410Z,42.59
2023-05-28T21:28:38.660Z,42.66
2023-05-28T21:31:18.716Z,43.25
2023-05-28T21:33:56.085Z,43.47
2023-05-28T21:36:30.974Z,43.26
2023-05-28T21:39:08.185Z,43.86
2023-05-28T21:41:37.533Z,44.70
2023-05-28T21:44:06.886Z,43.95
2023-05-28T21:46:40.200Z,43.62
2023-05-28T21:49:11.312Z,43.71
2023-05-28T21:51:57.120Z,43.21
2023-05-28T21:54:28.686Z,43.12
2023-05-28T21:56:58.096Z,42.73
2023-05-28T21:59:39.904Z,42.87
2023-05-28T22:02:11.692Z,43.05
2023-05-28T22:04:50.828Z,42.21
2023-05-28T22:07:36.359Z,42.96
2023-05-28T22:10:09.286Z,42.98
2023-05-28T22:12:47.228Z,43.36
2023-05-28T22:15:18.459Z,43.52
2023-05-28T22:17:48.079Z,44.18
2023-05-28T22:20:21.375Z,44.56
2023-05-28T22:22:57.953Z,45.28
2023-05-28T22:25:37.069Z,46.38
2023-05-28T22:28:06.043Z,47.10
2023-05-28T22:30:38.327Z,46.90
2023-05-28T22:33:11.225Z,47.79
2023-05-28T22:35:42.198Z,48.03
2023-05-28T22:38:18.686Z,46.95
2023-05-28T22:40:50.620Z,46.33
2023-05-28T22:43:21.289Z,45.52
2023-05-28T22:45:51.983Z,46.54
2023-05-28T22:48:21.483Z,46.05
2023-05-28T22:50:50.640Z,45.96
2023-05-28T22:53:22.706Z,44.85
2023-05-28T22:55:52.054Z,45.23
2023-05-28T22:58:23.343Z,46.10
2023-05-28T23:01:02.095Z,47.30
2023-05-28T23:03:43.553Z,47.03
2023-05-28T23:06:12.680Z,47.06
2023-05-28T23:08:50.362Z,45.76
2023-05-28T23:11:19.751Z,45.40
2023-05-28T23:13:51.104Z,45.25
2023-05-28T23:16:30.564Z,45.86
2023-05-28T23:19:01.913Z,45.32
2023-05-28T23:21:34.934Z,46.22
2023-05-28T23:24:16.269Z,46.15
2023-05-28T23:26:44.584Z,47.76
2023-05-28T23:29:16.500Z,47.79
2023-05-28T23:31:48.995Z,48.45
2023-05-28T23:34:19.380Z,50.90
2023-05-28T23:36:59.617Z,51.36
2023-05-28T23:39:42.012Z,52.03
2023-05-28T23:42:13.146Z,53.99
2023-05-28T23:44:43.885Z,54.56
2023-05-28T23:47:14.693Z,54.46
2023-05-28T23:49:46.379Z,54.17
2023-05-28T23:52:24.241Z,54.65
2023-05-28T23:54:54.736Z,54.89
2023-05-28T23:57:25.003Z,55.77
